地図

経路データ

SID SEASON NUMBER BASIN SUBBASIN NAME ISO_TIME NATURE LAT LON WMO_WIND WMO_PRES WMO_AGENCY TRACK_TYPE DIST2LAND LANDFALL IFLAG USA_AGENCY USA_ATCF_ID USA_LAT USA_LON USA_RECORD USA_STATUS USA_WIND USA_PRES USA_SSHS USA_R34_NE USA_R34_SE USA_R34_SW USA_R34_NW USA_R50_NE USA_R50_SE USA_R50_SW USA_R50_NW USA_R64_NE USA_R64_SE USA_R64_SW USA_R64_NW USA_POCI USA_ROCI USA_RMW USA_EYE TOKYO_LAT TOKYO_LON TOKYO_GRADE TOKYO_WIND TOKYO_PRES TOKYO_R50_DIR TOKYO_R50_LONG TOKYO_R50_SHORT TOKYO_R30_DIR TOKYO_R30_LONG TOKYO_R30_SHORT TOKYO_LAND CMA_LAT CMA_LON CMA_CAT CMA_WIND CMA_PRES HKO_LAT HKO_LON HKO_CAT HKO_WIND HKO_PRES NEWDELHI_LAT NEWDELHI_LON NEWDELHI_GRADE NEWDELHI_WIND NEWDELHI_PRES NEWDELHI_CI NEWDELHI_DP NEWDELHI_POCI REUNION_LAT REUNION_LON REUNION_TYPE REUNION_WIND REUNION_PRES REUNION_TNUM REUNION_CI REUNION_RMW REUNION_R34_NE REUNION_R34_SE REUNION_R34_SW REUNION_R34_NW REUNION_R50_NE REUNION_R50_SE REUNION_R50_SW REUNION_R50_NW REUNION_R64_NE REUNION_R64_SE REUNION_R64_SW REUNION_R64_NW BOM_LAT BOM_LON BOM_TYPE BOM_WIND BOM_PRES BOM_TNUM BOM_CI BOM_RMW BOM_R34_NE BOM_R34_SE BOM_R34_SW BOM_R34_NW BOM_R50_NE BOM_R50_SE BOM_R50_SW BOM_R50_NW BOM_R64_NE BOM_R64_SE BOM_R64_SW BOM_R64_NW BOM_ROCI BOM_POCI BOM_EYE BOM_POS_METHOD BOM_PRES_METHOD NADI_LAT NADI_LON NADI_CAT NADI_WIND NADI_PRES WELLINGTON_LAT WELLINGTON_LON WELLINGTON_WIND WELLINGTON_PRES DS824_LAT DS824_LON DS824_STAGE DS824_WIND DS824_PRES TD9636_LAT TD9636_LON TD9636_STAGE TD9636_WIND TD9636_PRES TD9635_LAT TD9635_LON TD9635_WIND TD9635_PRES TD9635_ROCI NEUMANN_LAT NEUMANN_LON NEUMANN_CLASS NEUMANN_WIND NEUMANN_PRES MLC_LAT MLC_LON MLC_CLASS MLC_WIND MLC_PRES USA_GUST BOM_GUST BOM_GUST_PER REUNION_GUST REUNION_GUST_PER USA_SEAHGT USA_SEARAD_NE USA_SEARAD_SE USA_SEARAD_SW USA_SEARAD_NW STORM_SPEED STORM_DIR
1928296N14141 1928 63 WP MM NOT_NAMED 1928-10-21 22:00:00 NR 14.3000 141.000 main 1690 1658 __________O___ -1 14.3000 141.000 7 10 270
1928296N14141 1928 63 WP MM NOT_NAMED 1928-10-22 00:00:00 NR 14.3007 140.651 main 1658 1595 __________P___ -1 14.3007 140.651 7 10 270
1928296N14141 1928 63 WP MM NOT_NAMED 1928-10-22 03:00:00 NR 14.3009 140.127 main 1595 1542 __________P___ -1 14.3009 140.127 7 10 270
1928296N14141 1928 63 WP MM NOT_NAMED 1928-10-22 06:00:00 NR 14.3006 139.602 main 1542 1490 __________P___ -1 14.3006 139.602 7 10 270
1928296N14141 1928 63 WP MM NOT_NAMED 1928-10-22 09:00:00 NR 14.3001 139.076 main 1490 1469 __________P___ -1 14.3001 139.076 7 10 270
1928296N14141 1928 63 WP MM NOT_NAMED 1928-10-22 10:00:00 NR 14.3000 138.900 main 1469 1427 __________O___ -1 14.3000 138.900 7 10 270
1928296N14141 1928 63 WP MM NOT_NAMED 1928-10-22 12:00:00 NR 14.2998 138.547 main 1427 1373 __________P___ -1 14.2998 138.547 7 10 270
1928296N14141 1928 63 WP MM NOT_NAMED 1928-10-22 15:00:00 NR 14.2996 138.018 main 1373 1320 __________P___ -1 14.2996 138.018 7 10 270
1928296N14141 1928 63 WP MM NOT_NAMED 1928-10-22 18:00:00 NR 14.2997 137.492 main 1320 1267 __________P___ -1 14.2997 137.492 7 10 270
1928296N14141 1928 63 WP MM NOT_NAMED 1928-10-22 21:00:00 NR 14.2999 136.972 main 1267 1245 __________P___ -1 14.2999 136.972 7 10 270
1928296N14141 1928 63 WP MM NOT_NAMED 1928-10-22 22:00:00 NR 14.3000 136.800 main 1245 1214 __________O___ -1 14.3000 136.800 7 10 270
1928296N14141 1928 63 WP MM NOT_NAMED 1928-10-23 00:00:00 NR 14.3025 136.451 main 1214 1150 __________P___ -1 14.3025 136.451 7 10 270
1928296N14141 1928 63 WP MM NOT_NAMED 1928-10-23 03:00:00 NR 14.3064 135.932 main 1150 1097 __________P___ -1 14.3064 135.932 7 10 270
1928296N14141 1928 63 WP MM NOT_NAMED 1928-10-23 06:00:00 NR 14.3078 135.430 main 1097 1055 __________P___ -1 14.3078 135.430 7 10 270
1928296N14141 1928 63 WP MM NOT_NAMED 1928-10-23 09:00:00 NR 14.3033 134.952 main 1055 1034 __________P___ -1 14.3033 134.952 7 9 269
1928296N14141 1928 63 WP MM NOT_NAMED 1928-10-23 10:00:00 NR 14.3000 134.800 main 1034 1002 __________O___ -1 14.3000 134.800 7 8 269
1928296N14141 1928 63 WP MM NOT_NAMED 1928-10-23 12:00:00 NR 14.2938 134.524 main 1002 960 __________P___ -1 14.2938 134.524 7 8 268
1928296N14141 1928 63 WP MM NOT_NAMED 1928-10-23 15:00:00 NR 14.2786 134.135 main 960 929 __________P___ -1 14.2786 134.135 7 8 267
1928296N14141 1928 63 WP MM NOT_NAMED 1928-10-23 18:00:00 NR 14.2537 133.751 main 929 873 __________P___ -1 14.2537 133.751 7 8 265
1928296N14141 1928 63 WP MM NOT_NAMED 1928-10-23 21:00:00 NR 14.2160 133.345 main 873 863 __________P___ -1 14.2160 133.345 7 8 264
1928296N14141 1928 63 WP MM NOT_NAMED 1928-10-23 22:00:00 NR 14.2000 133.200 main 863 832 __________O___ -1 14.2000 133.200 7 9 262
1928296N14141 1928 63 WP MM NOT_NAMED 1928-10-24 00:00:00 NR 14.1509 132.878 main 832 777 __________P___ -1 14.1509 132.878 7 10 261
1928296N14141 1928 63 WP MM NOT_NAMED 1928-10-24 03:00:00 NR 14.0645 132.364 main 777 711 __________P___ -1 14.0645 132.364 7 10 260
1928296N14141 1928 63 WP MM NOT_NAMED 1928-10-24 06:00:00 NR 13.9792 131.827 main 711 656 __________P___ -1 13.9792 131.827 7 11 262
1928296N14141 1928 63 WP MM NOT_NAMED 1928-10-24 09:00:00 NR 13.9140 131.281 main 656 636 __________P___ -1 13.9140 131.281 7 11 264
1928296N14141 1928 63 WP MM NOT_NAMED 1928-10-24 10:00:00 NR 13.9000 131.100 main 636 594 __________O___ -1 13.9000 131.100 7 11 268
1928296N14141 1928 63 WP MM NOT_NAMED 1928-10-24 12:00:00 NR 13.8966 130.716 main 594 533 __________P___ -1 13.8966 130.716 7 11 271
1928296N14141 1928 63 WP MM NOT_NAMED 1928-10-24 15:00:00 NR 13.9169 130.140 main 533 487 __________P___ -1 13.9169 130.140 7 11 273
1928296N14141 1928 63 WP MM NOT_NAMED 1928-10-24 18:00:00 NR 13.9533 129.598 main 487 439 __________P___ -1 13.9533 129.598 7 10 274
1928296N14141 1928 63 WP MM NOT_NAMED 1928-10-24 21:00:00 NR 13.9902 129.132 main 439 429 __________P___ -1 13.9902 129.132 7 9 275
1928296N14141 1928 63 WP MM NOT_NAMED 1928-10-24 22:00:00 NR 14.0000 129.000 main 429 410 __________O___ -1 14.0000 129.000 7 7 272
1928296N14141 1928 63 WP MM NOT_NAMED 1928-10-25 00:00:00 NR 14.0025 128.795 main 410 391 __________P___ -1 14.0025 128.795 7 5 270
1928296N14141 1928 63 WP MM NOT_NAMED 1928-10-25 03:00:00 NR 14.0005 128.570 main 391 373 __________P___ -1 14.0005 128.570 7 4 269
1928296N14141 1928 63 WP MM NOT_NAMED 1928-10-25 06:00:00 NR 13.9969 128.404 main 373 364 __________P___ -1 13.9969 128.404 7 3 269
1928296N14141 1928 63 WP MM NOT_NAMED 1928-10-25 09:00:00 NR 13.9977 128.254 main 364 355 __________P___ -1 13.9977 128.254 7 3 271
1928296N14141 1928 63 WP MM NOT_NAMED 1928-10-25 10:00:00 NR 14.0000 128.200 main 355 346 __________O___ -1 14.0000 128.200 7 4 275
1928296N14141 1928 63 WP MM NOT_NAMED 1928-10-25 12:00:00 NR 14.0136 128.056 main 346 320 __________P___ -1 14.0136 128.056 7 4 276
1928296N14141 1928 63 WP MM NOT_NAMED 1928-10-25 15:00:00 NR 14.0403 127.833 main 320 311 __________P___ -1 14.0403 127.833 7 4 277
1928296N14141 1928 63 WP MM NOT_NAMED 1928-10-25 18:00:00 NR 14.0691 127.605 main 311 296 __________P___ -1 14.0691 127.605 7 4 277
1928296N14141 1928 63 WP MM NOT_NAMED 1928-10-25 21:00:00 NR 14.0938 127.376 main 296 288 __________P___ -1 14.0938 127.376 7 4 276
1928296N14141 1928 63 WP MM NOT_NAMED 1928-10-25 22:00:00 NR 14.1000 127.300 main 288 280 __________O___ -1 14.1000 127.300 7 4 272
1928296N14141 1928 63 WP MM NOT_NAMED 1928-10-26 00:00:00 NR 14.1030 127.158 main 280 256 __________P___ -1 14.1030 127.158 7 4 270
1928296N14141 1928 63 WP MM NOT_NAMED 1928-10-26 03:00:00 NR 14.1011 126.945 main 256 241 __________P___ -1 14.1011 126.945 7 4 269
1928296N14141 1928 63 WP MM NOT_NAMED 1928-10-26 06:00:00 NR 14.0973 126.724 main 241 227 __________P___ -1 14.0973 126.724 7 4 270
1928296N14141 1928 63 WP MM NOT_NAMED 1928-10-26 09:00:00 NR 14.0978 126.485 main 227 217 __________P___ -1 14.0978 126.485 7 5 270
1928296N14141 1928 63 WP MM NOT_NAMED 1928-10-26 10:00:00 NR 14.1000 126.400 main 217 195 __________O___ -1 14.1000 126.400 7 6 271
1928296N14141 1928 63 WP MM NOT_NAMED 1928-10-26 12:00:00 NR 14.1006 126.194 main 195 163 __________P___ -1 14.1006 126.194 7 6 271
1928296N14141 1928 63 WP MM NOT_NAMED 1928-10-26 15:00:00 NR 14.1076 125.864 main 163 120 __________P___ -1 14.1076 125.864 7 6 273
1928296N14141 1928 63 WP MM NOT_NAMED 1928-10-26 18:00:00 NR 14.1300 125.545 main 120 102 __________P___ -1 14.1300 125.545 7 6 277
1928296N14141 1928 63 WP MM NOT_NAMED 1928-10-26 21:00:00 NR 14.1771 125.274 main 102 92 __________P___ -1 14.1771 125.274 7 5 282
1928296N14141 1928 63 WP MM NOT_NAMED 1928-10-26 22:00:00 NR 14.2000 125.200 main 92 82 __________O___ -1 14.2000 125.200 7 4 294
1928296N14141 1928 63 WP MM NOT_NAMED 1928-10-27 00:00:00 NR 14.2577 125.083 main 87 78 __________P___ -1 14.2577 125.083 7 3 306
1928296N14141 1928 63 WP MM NOT_NAMED 1928-10-27 03:00:00 NR 14.3696 124.964 main 85 77 __________P___ -1 14.3696 124.964 7 3 325
1928296N14141 1928 63 WP MM NOT_NAMED 1928-10-27 06:00:00 NR 14.5035 124.904 main 85 85 __________P___ -1 14.5035 124.904 7 3 347
1928296N14141 1928 63 WP MM NOT_NAMED 1928-10-27 09:00:00 NR 14.6500 124.894 main 101 101 __________P___ -1 14.6500 124.894 7 3 353
1928296N14141 1928 63 WP MM NOT_NAMED 1928-10-27 10:00:00 NR 14.7000 124.900 main 101 101 __________O___ -1 14.7000 124.900 7 2 0
1928296N14141 1928 63 WP MM NOT_NAMED 1928-10-27 12:00:00 NR 14.7625 124.867 main 110 104 __________P___ -1 14.7625 124.867 7 2 345
1928296N14141 1928 63 WP MM NOT_NAMED 1928-10-27 15:00:00 NR 14.8618 124.853 main 119 119 __________P___ -1 14.8618 124.853 7 2 14
1928296N14141 1928 63 WP MM NOT_NAMED 1928-10-27 18:00:00 NR 14.9989 124.919 main 129 129 __________P___ -1 14.9989 124.919 7 4 35
1928296N14141 1928 63 WP MM NOT_NAMED 1928-10-27 21:00:00 NR 15.2082 125.105 main 159 159 __________P___ -1 15.2082 125.105 7 6 42
1928296N14141 1928 63 WP MM NOT_NAMED 1928-10-27 22:00:00 NR 15.3000 125.200 main 174 174 __________O___ -1 15.3000 125.200 7 9 47
1928296N14141 1928 63 WP MM NOT_NAMED 1928-10-28 00:00:00 NR 15.5188 125.453 main 211 211 __________P___ -1 15.5188 125.453 7 12 49
1928296N14141 1928 63 WP MM NOT_NAMED 1928-10-28 03:00:00 NR 15.9221 125.952 main 280 280 __________P___ -1 15.9221 125.952 7 14 50
1928296N14141 1928 63 WP MM NOT_NAMED 1928-10-28 06:00:00 NR 16.3960 126.548 main 357 364 __________P___ -1 16.3960 126.548 7 16 50
1928296N14141 1928 63 WP MM NOT_NAMED 1928-10-28 09:00:00 NR 16.9186 127.187 main 449 449 __________P___ -1 16.9186 127.187 7 16 49
1928296N14141 1928 63 WP MM NOT_NAMED 1928-10-28 10:00:00 NR 17.1000 127.400 main 480 480 __________O___ -1 17.1000 127.400 7 16 49
1928296N14141 1928 63 WP MM NOT_NAMED 1928-10-28 12:00:00 NR 17.4448 127.827 main 534 549 __________P___ -1 17.4448 127.827 7 16 49
1928296N14141 1928 63 WP MM NOT_NAMED 1928-10-28 15:00:00 NR 17.9932 128.482 main 634 634 __________P___ -1 17.9932 128.482 7 17 47
1928296N14141 1928 63 WP MM NOT_NAMED 1928-10-28 18:00:00 NR 18.5757 129.106 main 717 717 __________P___ -1 18.5757 129.106 7 16 43
1928296N14141 1928 63 WP MM NOT_NAMED 1928-10-28 21:00:00 NR 19.1891 129.647 main 773 784 __________P___ -1 19.1891 129.647 7 16 38
1928296N14141 1928 63 WP MM NOT_NAMED 1928-10-28 22:00:00 NR 19.4000 129.800 main 796 796 __________O___ -1 19.4000 129.800 7 15 29
1928296N14141 1928 63 WP MM NOT_NAMED 1928-10-29 00:00:00 NR 19.8419 130.037 main 824 836 __________P___ -1 19.8419 130.037 7 15 22
1928296N14141 1928 63 WP MM NOT_NAMED 1928-10-29 03:00:00 NR 20.5312 130.297 main 870 873 __________P___ -1 20.5312 130.297 7 15 17
1928296N14141 1928 63 WP MM NOT_NAMED 1928-10-29 06:00:00 NR 21.2245 130.484 main 913 916 __________P___ -1 21.2245 130.484 7 14 13
1928296N14141 1928 63 WP MM NOT_NAMED 1928-10-29 09:00:00 NR 21.8899 130.644 main 934 937 __________P___ -1 21.8899 130.644 7 14 13
1928296N14141 1928 63 WP MM NOT_NAMED 1928-10-29 10:00:00 NR 22.1000 130.700 main 937 930 __________O___ -1 22.1000 130.700 7 12 14
1928296N14141 1928 63 WP MM NOT_NAMED 1928-10-29 12:00:00 NR 22.4544 130.796 main 934 904 __________P___ -1 22.4544 130.796 7 11 15
1928296N14141 1928 63 WP MM NOT_NAMED 1928-10-29 15:00:00 NR 22.9477 130.937 main 904 849 __________P___ -1 22.9477 130.937 7 10 17
1928296N14141 1928 63 WP MM NOT_NAMED 1928-10-29 18:00:00 NR 23.4431 131.134 main 849 784 __________P___ -1 23.4431 131.134 7 12 24
1928296N14141 1928 63 WP MM NOT_NAMED 1928-10-29 21:00:00 NR 23.9945 131.454 main 785 764 __________P___ -1 23.9945 131.454 7 13 29
1928296N14141 1928 63 WP MM NOT_NAMED 1928-10-29 22:00:00 NR 24.2000 131.600 main 764 714 __________O___ -1 24.2000 131.600 7 16 35
1928296N14141 1928 63 WP MM NOT_NAMED 1928-10-30 00:00:00 NR 24.6510 131.961 main 714 652 __________P___ -1 24.6510 131.961 7 19 38
1928296N14141 1928 63 WP MM NOT_NAMED 1928-10-30 03:00:00 NR 25.4112 132.651 main 655 596 __________P___ -1 25.4112 132.651 7 21 41
1928296N14141 1928 63 WP MM NOT_NAMED 1928-10-30 06:00:00 NR 26.2418 133.477 main 601 556 __________P___ -1 26.2418 133.477 7 23 43
1928296N14141 1928 63 WP MM NOT_NAMED 1928-10-30 09:00:00 NR 27.1087 134.387 main 561 543 __________P___ -1 27.1087 134.387 7 24 43
1928296N14141 1928 63 WP MM NOT_NAMED 1928-10-30 10:00:00 NR 27.4000 134.700 main 548 __________O___ -1 27.4000 134.700 7 24 43

デジタル台風データ・検索

IBTrACS Databaseについて

本データベースは、米国NOAAが公開する1842年以降の世界の熱帯低気圧のベストトラックデータアーカイブInternational Best Track Archive for Climate Stewardship (IBTrACS)を、ウェブで閲覧しやすい形式に変換したものです。

最終更新日:2021-11-26